Drummond Island, MI

7:34 AM EDT on March 28, 2015 (GMT -0400)
Potagannissing Bay Front | | Change Station
CLOSE
Current Station
Personal Weather Station
Location: Drummond Island, MI
Elevation: 587 ft
Nearby Weather Stations

Elev 587 ft 46.06 °N, 83.67 °W | Updated 0 second ago

Clear
Clear
2.9 °F
Feels Like 3 °F
N
3.0
Wind Variable Wind from West
Gusts 4.0 mph

Today
High -- | Low -- °F
--% Chance of Precip.
Yesterday
High -- | Low -- °F
Precip. -- in
7:22 AM 7:57 PM
First Quarter, 61% visible
Pressure 30.25 in
Visibility 10.0 miles
Clouds Clear
Windchill 3 °F
Dew Point 0 °F
Humidity 89%
Rainfall 0.00 in
Snow Depth Not available.
UV 0 out of 12
Pollen 1.20 out of 12
Air Quality Not available.
Flu Activity Not available.
METAR KDRM 281115Z AUTO 00000KT 10SM CLR M16/M18 A3025 RMK AO2 T11611178

More Conditions Fewer Conditions

Pressure 30.25 in
Visibility 10.0 miles
Clouds Clear
Windchill 3 °F
Dew Point 0 °F
Humidity 89%
Rainfall 0.00 in
Snow Depth Not available.
UV 0 out of 12
Pollen 1.20 out of 12
Air Quality Not available.
Flu Activity Not available.
METAR KDRM 281115Z AUTO 00000KT 10SM CLR M16/M18 A3025 RMK AO2 T11611178

More Conditions Fewer Conditions

Nowcast | as of 7:00 am EDT on March 28, 2015

At 8 am...clear. Temperature 2 above. Light winds. At 10 am...clear. Temperature 5 above. Light winds. At 12 PM...clear. Temperature 19. West winds 6 mph. At 2 PM...clear. Temperature 24. West winds 8 mph.

×

10-Day Weather Forecast

Almanac

Astronomy

Mar. 28, 2015 Rise Set
Actual Time
Civil Twilight
Nautical Twilight
Astronomical Twilight
Moon
Length of Visible Light
Length of Day
Tomorrow will be .
, % of the Moon is Illuminated

Today's Extremes

State Highs State Lows

Community

WunderPhotos

Upload Photos

1,808,958 photos uploaded!

WunderBlogs® & News

Nearby

Air Quality

  Air Quality AQ Index Pollutant
Not available.

Snow Depth

Station Depth Elevation

Earthquake Activity

City Distance Mag. Time & Date
Minimum magnitude displayed is 2.5.

Coastal Water Temperatures

Place Temperature

Stations

Nearby Weather Stations

Station Location Temp. Windchill Dew Point Humidity Wind Precip. Elev Updated Type